createdAt,value
2019-01-08T00:00:10.697Z,0
2019-01-08T00:01:09.464Z,0
2019-01-08T00:02:09.438Z,0
2019-01-08T00:03:10.584Z,0
2019-01-08T00:04:09.429Z,0
2019-01-08T00:05:09.172Z,0
2019-01-08T00:06:09.131Z,0
2019-01-08T00:07:09.408Z,0
2019-01-08T00:08:09.141Z,0
2019-01-08T00:09:09.358Z,0
2019-01-08T00:10:09.387Z,0
2019-01-08T00:11:09.094Z,0
2019-01-08T00:12:08.836Z,0
2019-01-08T00:13:09.062Z,0
2019-01-08T00:14:09.060Z,0
2019-01-08T00:15:09.080Z,0
2019-01-08T00:16:08.775Z,0
2019-01-08T00:17:09.272Z,0
2019-01-08T00:18:09.260Z,0
2019-01-08T00:19:09.002Z,0
2019-01-08T00:20:08.986Z,0
2019-01-08T00:21:09.221Z,0
2019-01-08T00:22:08.985Z,0
2019-01-08T00:23:08.712Z,0
2019-01-08T00:24:09.194Z,0
2019-01-08T00:25:08.930Z,0
2019-01-08T00:26:08.924Z,0
2019-01-08T00:27:09.168Z,0
2019-01-08T00:28:08.666Z,0
2019-01-08T00:29:09.175Z,0
2019-01-08T00:30:08.889Z,0
2019-01-08T00:31:09.132Z,0
2019-01-08T00:32:09.123Z,0
2019-01-08T00:33:09.139Z,0
2019-01-08T00:34:09.114Z,0
2019-01-08T00:35:09.110Z,0
2019-01-08T00:36:09.123Z,0
2019-01-08T00:37:09.087Z,0
2019-01-08T00:38:09.068Z,0
2019-01-08T00:39:09.064Z,0
2019-01-08T00:40:08.814Z,0
2019-01-08T00:41:09.100Z,0
2019-01-08T00:42:09.021Z,0
2019-01-08T00:43:08.795Z,0
2019-01-08T00:44:08.530Z,0
2019-01-08T00:45:08.501Z,0
2019-01-08T00:46:08.985Z,0
2019-01-08T00:47:08.986Z,0
2019-01-08T00:48:08.957Z,0
2019-01-08T00:49:09.011Z,0
2019-01-08T00:50:08.703Z,0
2019-01-08T00:51:08.941Z,0
2019-01-08T00:52:08.428Z,0
2019-01-08T00:53:08.799Z,0
2019-01-08T00:54:08.908Z,0
2019-01-08T00:55:08.677Z,0
2019-01-08T00:56:08.904Z,0
2019-01-08T00:57:08.873Z,0
2019-01-08T00:58:08.641Z,0
2019-01-08T00:59:08.861Z,0
2019-01-08T01:00:08.855Z,0
2019-01-08T01:01:08.838Z,0
2019-01-08T01:02:08.839Z,0
2019-01-08T01:03:08.570Z,0
2019-01-08T01:04:10.893Z,0
2019-01-08T01:05:08.842Z,0
2019-01-08T01:06:08.802Z,0
2019-01-08T01:07:08.522Z,0
2019-01-08T01:08:08.543Z,0
2019-01-08T01:09:08.808Z,0
2019-01-08T01:10:08.270Z,0
2019-01-08T01:11:08.758Z,0
2019-01-08T01:12:08.500Z,0
2019-01-08T01:13:08.729Z,0
2019-01-08T01:14:08.479Z,0
2019-01-08T01:15:08.477Z,0
2019-01-08T01:16:08.486Z,0
2019-01-08T01:17:08.442Z,0
2019-01-08T01:18:08.679Z,0
2019-01-08T01:19:08.431Z,0
2019-01-08T01:20:08.690Z,0
2019-01-08T01:21:08.398Z,0
2019-01-08T01:22:08.649Z,0
2019-01-08T01:23:08.385Z,0
2019-01-08T01:24:08.136Z,0
2019-01-08T01:25:08.380Z,0
2019-01-08T01:26:08.361Z,0
2019-01-08T01:27:08.607Z,0
2019-01-08T01:28:08.601Z,0
2019-01-08T01:29:08.093Z,0
2019-01-08T01:30:07.814Z,0
2019-01-08T01:31:08.318Z,0
2019-01-08T01:32:08.059Z,0
2019-01-08T01:33:08.293Z,0
2019-01-08T01:34:08.082Z,0
2019-01-08T01:35:08.524Z,0
2019-01-08T01:36:08.499Z,0
2019-01-08T01:37:08.576Z,0
2019-01-08T01:38:08.476Z,0
2019-01-08T01:39:08.503Z,0
2019-01-08T01:40:08.227Z,0
2019-01-08T01:41:07.970Z,0
2019-01-08T01:42:07.966Z,0
2019-01-08T01:43:08.191Z,0
2019-01-08T01:44:08.203Z,0
2019-01-08T01:45:08.422Z,0
2019-01-08T01:46:08.180Z,0
2019-01-08T01:47:08.417Z,0
2019-01-08T01:48:08.152Z,0
2019-01-08T01:49:08.682Z,0
2019-01-08T01:50:07.859Z,0
2019-01-08T01:51:07.618Z,0
2019-01-08T01:52:08.351Z,0
2019-01-08T01:53:08.108Z,0
2019-01-08T01:54:07.832Z,0
2019-01-08T01:55:08.314Z,0
2019-01-08T01:56:08.340Z,0
2019-01-08T01:57:08.296Z,0
2019-01-08T01:58:08.042Z,0
2019-01-08T01:59:15.456Z,0
2019-01-08T02:00:08.027Z,0
2019-01-08T02:01:08.033Z,0
2019-01-08T02:02:08.256Z,0
2019-01-08T02:03:07.994Z,0
2019-01-08T02:04:07.988Z,0
2019-01-08T02:05:08.025Z,0
2019-01-08T02:06:07.758Z,0
2019-01-08T02:07:07.964Z,0
2019-01-08T02:08:07.963Z,0
2019-01-08T02:09:08.216Z,0
2019-01-08T02:10:07.942Z,0
2019-01-08T02:11:07.685Z,0
2019-01-08T02:12:08.241Z,0
2019-01-08T02:13:07.421Z,0
2019-01-08T02:14:07.903Z,0
2019-01-08T02:15:08.141Z,0
2019-01-08T02:16:07.365Z,0
2019-01-08T02:17:08.133Z,0
2019-01-08T02:18:07.858Z,0
2019-01-08T02:19:08.101Z,0
2019-01-08T02:20:09.750Z,0
2019-01-08T02:21:07.830Z,0
2019-01-08T02:22:08.074Z,0
2019-01-08T02:23:08.111Z,0
2019-01-08T02:24:07.802Z,0
2019-01-08T02:25:07.806Z,0
2019-01-08T02:26:07.773Z,0
2019-01-08T02:27:07.765Z,0
2019-01-08T02:28:08.027Z,0
2019-01-08T02:29:07.765Z,0
2019-01-08T02:30:07.784Z,0
2019-01-08T02:31:07.998Z,0
2019-01-08T02:32:07.827Z,0
2019-01-08T02:33:07.975Z,0
2019-01-08T02:34:07.970Z,0
2019-01-08T02:35:09.339Z,0
2019-01-08T02:36:07.706Z,0
2019-01-08T02:37:07.917Z,0
2019-01-08T02:38:07.654Z,0
2019-01-08T02:39:07.636Z,0
2019-01-08T02:40:07.644Z,0
2019-01-08T02:41:07.894Z,0
2019-01-08T02:42:08.231Z,0
2019-01-08T02:43:07.360Z,0
2019-01-08T02:44:08.141Z,0
2019-01-08T02:45:07.874Z,0
2019-01-08T02:46:08.111Z,0
2019-01-08T02:47:07.580Z,0
2019-01-08T02:48:07.321Z,0
2019-01-08T02:49:07.571Z,0
2019-01-08T02:50:09.193Z,0
2019-01-08T02:51:07.541Z,0
2019-01-08T02:52:07.798Z,0
2019-01-08T02:53:07.802Z,0
2019-01-08T02:54:07.281Z,0
2019-01-08T02:55:07.517Z,0
2019-01-08T02:56:07.226Z,0
2019-01-08T02:57:07.477Z,0
2019-01-08T02:58:07.714Z,0
2019-01-08T02:59:07.797Z,0
2019-01-08T03:00:07.444Z,0
2019-01-08T03:01:07.462Z,0
2019-01-08T03:02:07.169Z,0
2019-01-08T03:03:07.669Z,0
2019-01-08T03:04:07.397Z,0
2019-01-08T03:05:07.194Z,0
2019-01-08T03:06:07.385Z,0
2019-01-08T03:07:07.620Z,0
2019-01-08T03:08:07.616Z,0
2019-01-08T03:09:07.432Z,0
2019-01-08T03:10:07.363Z,0
2019-01-08T03:11:07.094Z,0
2019-01-08T03:12:07.315Z,0
2019-01-08T03:13:07.313Z,0
2019-01-08T03:14:07.561Z,0
2019-01-08T03:15:07.563Z,0
2019-01-08T03:16:07.283Z,0
2019-01-08T03:17:07.544Z,0
2019-01-08T03:18:07.278Z,0
2019-01-08T03:19:07.502Z,0
2019-01-08T03:20:10.694Z,0
2019-01-08T03:21:07.500Z,0
2019-01-08T03:22:07.228Z,0
2019-01-08T03:23:07.289Z,0
2019-01-08T03:24:07.465Z,0
2019-01-08T03:25:07.465Z,0
2019-01-08T03:26:06.988Z,0
2019-01-08T03:27:07.192Z,0
2019-01-08T03:28:07.174Z,0
2019-01-08T03:29:07.162Z,0
2019-01-08T03:30:07.226Z,0
2019-01-08T03:31:07.511Z,0
2019-01-08T03:32:07.172Z,0
2019-01-08T03:33:06.895Z,0
2019-01-08T03:34:06.861Z,0
2019-01-08T03:35:06.956Z,0
2019-01-08T03:36:07.407Z,0
2019-01-08T03:37:07.082Z,0
2019-01-08T03:38:07.346Z,0
2019-01-08T03:39:07.077Z,0
2019-01-08T03:40:07.162Z,0
2019-01-08T03:41:07.324Z,0
2019-01-08T03:42:07.052Z,0
2019-01-08T03:43:07.042Z,0
2019-01-08T03:44:06.516Z,0
2019-01-08T03:45:06.905Z,0
2019-01-08T03:46:06.757Z,0
2019-01-08T03:47:06.506Z,0
2019-01-08T03:48:06.743Z,0
2019-01-08T03:49:06.527Z,0
2019-01-08T03:50:07.046Z,0
2019-01-08T03:51:10.685Z,0
2019-01-08T03:52:06.953Z,0
2019-01-08T03:53:06.925Z,0
2019-01-08T03:54:07.171Z,0
2019-01-08T03:55:07.059Z,0
2019-01-08T03:56:06.912Z,0
2019-01-08T03:57:06.900Z,0
2019-01-08T03:58:06.408Z,0
2019-01-08T03:59:07.130Z,0
2019-01-08T04:00:06.896Z,0
2019-01-08T04:01:06.358Z,0
2019-01-08T04:02:06.858Z,0
2019-01-08T04:03:06.838Z,0
2019-01-08T04:04:06.586Z,0
2019-01-08T04:05:06.836Z,0
2019-01-08T04:06:07.916Z,0
2019-01-08T04:07:06.808Z,0
2019-01-08T04:08:06.569Z,0
2019-01-08T04:09:07.040Z,0
2019-01-08T04:10:07.016Z,0
2019-01-08T04:11:06.757Z,0
2019-01-08T04:12:06.760Z,0
2019-01-08T04:13:06.526Z,0
2019-01-08T04:14:06.529Z,0
2019-01-08T04:15:06.471Z,0
2019-01-08T04:16:07.257Z,0
2019-01-08T04:17:06.951Z,0
2019-01-08T04:18:06.776Z,0
2019-01-08T04:19:06.685Z,0
2019-01-08T04:20:06.674Z,0
2019-01-08T04:21:06.683Z,0
2019-01-08T04:22:06.916Z,0
2019-01-08T04:23:06.917Z,0
2019-01-08T04:24:06.890Z,0
2019-01-08T04:25:06.400Z,0
2019-01-08T04:26:06.881Z,0
2019-01-08T04:27:06.622Z,0
2019-01-08T04:28:06.383Z,0
2019-01-08T04:29:06.623Z,0
2019-01-08T04:30:07.973Z,0
2019-01-08T04:31:06.593Z,0
2019-01-08T04:32:07.146Z,0
2019-01-08T04:33:06.820Z,0
2019-01-08T04:34:06.812Z,0
2019-01-08T04:35:06.546Z,0
2019-01-08T04:36:06.528Z,0
2019-01-08T04:37:06.570Z,0
2019-01-08T04:38:06.774Z,0
2019-01-08T04:39:06.514Z,0
2019-01-08T04:40:06.275Z,0
2019-01-08T04:41:06.514Z,0
2019-01-08T04:42:06.233Z,0
2019-01-08T04:43:06.740Z,0
2019-01-08T04:44:06.445Z,0
2019-01-08T04:45:06.462Z,0
2019-01-08T04:46:06.453Z,0
2019-01-08T04:47:06.182Z,0
2019-01-08T04:48:06.435Z,0
2019-01-08T04:49:06.662Z,0
2019-01-08T04:50:06.509Z,0
2019-01-08T04:51:06.404Z,0
2019-01-08T04:52:06.592Z,0
2019-01-08T04:53:06.127Z,0
2019-01-08T04:54:06.360Z,0
2019-01-08T04:55:06.624Z,0
2019-01-08T04:56:06.106Z,0
2019-01-08T04:57:06.347Z,0
2019-01-08T04:58:06.112Z,0
2019-01-08T04:59:06.340Z,0
2019-01-08T05:00:06.567Z,0
2019-01-08T05:01:06.301Z,0
2019-01-08T05:02:06.284Z,0
2019-01-08T05:03:06.274Z,0
2019-01-08T05:04:06.289Z,0
2019-01-08T05:05:06.527Z,0
2019-01-08T05:06:06.511Z,0
2019-01-08T05:07:06.286Z,0
2019-01-08T05:08:06.238Z,0
2019-01-08T05:09:06.489Z,0
2019-01-08T05:10:06.229Z,0
2019-01-08T05:11:06.451Z,0
2019-01-08T05:12:06.209Z,0
2019-01-08T05:13:06.442Z,0
2019-01-08T05:14:06.422Z,0
2019-01-08T05:15:06.431Z,0
2019-01-08T05:16:06.409Z,0
2019-01-08T05:17:06.152Z,0
2019-01-08T05:18:06.376Z,0
2019-01-08T05:19:06.172Z,0
2019-01-08T05:20:06.122Z,0
2019-01-08T05:21:06.101Z,0
2019-01-08T05:22:06.286Z,0
2019-01-08T05:23:06.330Z,0
2019-01-08T05:24:06.066Z,0
2019-01-08T05:25:06.328Z,0
2019-01-08T05:26:06.357Z,0
2019-01-08T05:27:06.315Z,0
2019-01-08T05:28:05.558Z,0
2019-01-08T05:29:06.299Z,0
2019-01-08T05:30:14.918Z,0
2019-01-08T05:31:06.022Z,0
2019-01-08T05:32:05.522Z,0
2019-01-08T05:33:06.251Z,0
2019-01-08T05:34:05.744Z,0
2019-01-08T05:35:05.986Z,0
2019-01-08T05:36:06.208Z,0
2019-01-08T05:37:05.705Z,0
2019-01-08T05:38:06.245Z,0
2019-01-08T05:39:06.180Z,0
2019-01-08T05:40:06.179Z,0
2019-01-08T05:41:05.927Z,0
2019-01-08T05:42:06.190Z,0
2019-01-08T05:43:05.663Z,0
2019-01-08T05:44:05.649Z,0
2019-01-08T05:45:06.119Z,0
2019-01-08T05:46:06.122Z,0
2019-01-08T05:47:05.866Z,0
2019-01-08T05:48:05.860Z,0
2019-01-08T05:49:06.106Z,0
2019-01-08T05:50:05.837Z,0
2019-01-08T05:51:06.066Z,0
2019-01-08T05:52:05.812Z,0
2019-01-08T05:53:07.970Z,0
2019-01-08T05:54:05.549Z,0
2019-01-08T05:55:06.044Z,0
2019-01-08T05:56:06.035Z,0
2019-01-08T05:57:05.760Z,0
2019-01-08T05:58:06.022Z,0
2019-01-08T05:59:05.761Z,0
2019-01-08T06:00:06.005Z,0
2019-01-08T06:01:06.051Z,0
2019-01-08T06:02:05.965Z,0
2019-01-08T06:03:05.723Z,0
2019-01-08T06:04:05.451Z,0
2019-01-08T06:05:05.791Z,0
2019-01-08T06:06:05.718Z,0
2019-01-08T06:07:05.946Z,0
2019-01-08T06:08:05.962Z,0
2019-01-08T06:09:05.448Z,0
2019-01-08T06:10:05.652Z,0
2019-01-08T06:11:05.409Z,0
2019-01-08T06:12:05.628Z,0
2019-01-08T06:13:05.633Z,0
2019-01-08T06:14:05.609Z,0
2019-01-08T06:15:05.864Z,0
2019-01-08T06:16:05.703Z,0
2019-01-08T06:17:05.604Z,0
2019-01-08T06:18:05.576Z,0
2019-01-08T06:19:05.315Z,0
2019-01-08T06:20:05.576Z,0
2019-01-08T06:21:05.565Z,0
2019-01-08T06:22:05.790Z,0
2019-01-08T06:23:08.527Z,0
2019-01-08T06:24:05.772Z,0
2019-01-08T06:25:07.799Z,0
2019-01-08T06:26:05.486Z,0
2019-01-08T06:27:05.742Z,0
2019-01-08T06:28:05.492Z,0
2019-01-08T06:29:05.468Z,0
2019-01-08T06:30:05.707Z,0
2019-01-08T06:31:05.480Z,0
2019-01-08T06:32:05.447Z,0
2019-01-08T06:33:05.422Z,0
2019-01-08T06:34:05.676Z,0
2019-01-08T06:35:05.417Z,0
2019-01-08T06:36:05.656Z,0
2019-01-08T06:37:05.409Z,0
2019-01-08T06:38:05.639Z,0
2019-01-08T06:39:05.693Z,0
2019-01-08T06:40:05.601Z,0
2019-01-08T06:41:05.359Z,0
2019-01-08T06:42:05.603Z,0
2019-01-08T06:43:05.358Z,0
2019-01-08T06:44:05.615Z,0
2019-01-08T06:45:05.322Z,0
2019-01-08T06:46:05.583Z,4
2019-01-08T06:47:05.549Z,4
2019-01-08T06:48:05.554Z,4
2019-01-08T06:49:05.527Z,4
2019-01-08T06:50:05.514Z,4
2019-01-08T06:51:05.520Z,4
2019-01-08T06:52:05.507Z,8
2019-01-08T06:53:05.536Z,4
2019-01-08T06:54:07.377Z,4
2019-01-08T06:55:05.495Z,4
2019-01-08T06:56:05.212Z,4
2019-01-08T06:57:05.024Z,4
2019-01-08T06:58:05.444Z,4
2019-01-08T06:59:05.189Z,4
2019-01-08T07:00:05.175Z,8
2019-01-08T07:01:05.423Z,8
2019-01-08T07:02:05.156Z,8
2019-01-08T07:03:05.395Z,12
2019-01-08T07:04:05.466Z,8
2019-01-08T07:05:05.127Z,8
2019-01-08T07:06:05.370Z,8
2019-01-08T07:07:05.363Z,8
2019-01-08T07:08:05.110Z,12
2019-01-08T07:09:05.167Z,12
2019-01-08T07:10:05.334Z,20
2019-01-08T07:11:05.109Z,24
2019-01-08T07:12:04.821Z,24
2019-01-08T07:13:05.077Z,32
2019-01-08T07:14:05.299Z,48
2019-01-08T07:15:05.039Z,60
2019-01-08T07:16:05.032Z,72
2019-01-08T07:17:05.054Z,68
2019-01-08T07:18:05.023Z,64
2019-01-08T07:19:05.002Z,72
2019-01-08T07:20:05.319Z,76
2019-01-08T07:21:05.228Z,76
2019-01-08T07:22:04.978Z,84
2019-01-08T07:23:04.984Z,88
2019-01-08T07:24:05.961Z,96
2019-01-08T07:25:04.824Z,96
2019-01-08T07:26:04.942Z,100
2019-01-08T07:27:05.176Z,112
2019-01-08T07:28:05.166Z,120
2019-01-08T07:29:05.151Z,136
2019-01-08T07:30:05.177Z,160
2019-01-08T07:31:05.153Z,160
2019-01-08T07:32:04.883Z,132
2019-01-08T07:33:05.114Z,132
2019-01-08T07:34:04.871Z,156
2019-01-08T07:35:05.138Z,184
2019-01-08T07:36:05.117Z,196
2019-01-08T07:37:04.844Z,228
2019-01-08T07:38:05.075Z,244
2019-01-08T07:39:04.876Z,212
2019-01-08T07:40:04.826Z,176
2019-01-08T07:41:05.144Z,140
2019-01-08T07:42:04.814Z,108
2019-01-08T07:43:05.160Z,104
2019-01-08T07:44:04.794Z,104
2019-01-08T07:45:05.012Z,116
2019-01-08T07:46:04.766Z,120
2019-01-08T07:47:05.012Z,128
2019-01-08T07:48:05.003Z,140
2019-01-08T07:49:04.730Z,140
2019-01-08T07:50:04.750Z,144
2019-01-08T07:51:04.744Z,132
2019-01-08T07:52:05.043Z,140
2019-01-08T07:53:04.693Z,152
2019-01-08T07:54:06.842Z,176
2019-01-08T07:55:04.767Z,200
2019-01-08T07:56:04.675Z,180
2019-01-08T07:57:04.658Z,168
2019-01-08T07:58:04.409Z,200
2019-01-08T07:59:04.650Z,256
2019-01-08T08:00:04.723Z,296
2019-01-08T08:01:04.881Z,316
2019-01-08T08:02:06.715Z,376
2019-01-08T08:03:04.845Z,368
2019-01-08T08:04:04.837Z,356
2019-01-08T08:05:04.664Z,324
2019-01-08T08:06:04.593Z,344
2019-01-08T08:07:04.328Z,336
2019-01-08T08:08:04.811Z,304
2019-01-08T08:09:06.770Z,256
2019-01-08T08:10:04.653Z,244
2019-01-08T08:11:04.277Z,248
2019-01-08T08:12:04.528Z,268
2019-01-08T08:13:04.507Z,280
2019-01-08T08:14:04.017Z,284
2019-01-08T08:15:04.533Z,304
2019-01-08T08:16:04.739Z,312
2019-01-08T08:17:04.739Z,324
2019-01-08T08:18:04.728Z,368
2019-01-08T08:19:04.480Z,500
2019-01-08T08:20:04.490Z,544
2019-01-08T08:21:04.224Z,476
2019-01-08T08:22:04.455Z,416
2019-01-08T08:23:04.446Z,408
2019-01-08T08:24:04.694Z,440
2019-01-08T08:25:04.680Z,420
2019-01-08T08:26:04.436Z,384
2019-01-08T08:27:04.232Z,364
2019-01-08T08:28:04.644Z,396
2019-01-08T08:29:04.640Z,420
2019-01-08T08:30:04.398Z,392
2019-01-08T08:31:05.984Z,388
2019-01-08T08:32:04.363Z,360
2019-01-08T08:33:04.381Z,368
2019-01-08T08:34:04.180Z,424
2019-01-08T08:35:12.943Z,416
2019-01-08T08:36:04.092Z,384
2019-01-08T08:37:04.670Z,384
2019-01-08T08:38:04.565Z,456
2019-01-08T08:39:04.303Z,612
2019-01-08T08:40:04.250Z,796
2019-01-08T08:41:04.305Z,964
2019-01-08T08:42:04.538Z,908
2019-01-08T08:43:04.545Z,748
2019-01-08T08:44:04.509Z,672
2019-01-08T08:45:04.038Z,680
2019-01-08T08:46:04.245Z,792
2019-01-08T08:47:04.249Z,960
2019-01-08T08:48:04.516Z,1184
2019-01-08T08:49:04.592Z,1440
2019-01-08T08:50:04.476Z,1748
2019-01-08T08:51:04.234Z,1996
2019-01-08T08:52:04.448Z,2164
2019-01-08T08:53:04.199Z,2252
2019-01-08T08:54:04.193Z,2408
2019-01-08T08:55:08.546Z,2640
2019-01-08T08:56:04.022Z,2860
2019-01-08T08:57:03.923Z,3052
2019-01-08T08:58:03.986Z,3168
2019-01-08T08:59:04.144Z,3212
2019-01-08T09:00:03.917Z,3144
2019-01-08T09:01:11.865Z,3148
2019-01-08T09:02:04.112Z,3220
2019-01-08T09:03:04.386Z,3320
2019-01-08T09:04:04.365Z,3376
2019-01-08T09:05:04.380Z,3344
2019-01-08T09:06:04.331Z,3336
2019-01-08T09:07:04.160Z,3388
2019-01-08T09:08:04.320Z,3476
2019-01-08T09:09:04.314Z,3520
2019-01-08T09:10:03.600Z,3432
2019-01-08T09:11:03.804Z,3324
2019-01-08T09:12:04.046Z,3140
2019-01-08T09:13:04.492Z,3104
2019-01-08T09:14:04.013Z,3120
2019-01-08T09:15:04.009Z,3148
2019-01-08T09:16:04.009Z,3188
2019-01-08T09:17:03.743Z,3252
2019-01-08T09:18:03.741Z,3252
2019-01-08T09:19:03.969Z,3452
2019-01-08T09:20:03.747Z,3304
2019-01-08T09:21:04.209Z,3344
2019-01-08T09:22:03.943Z,3436
2019-01-08T09:23:04.187Z,4592
2019-01-08T09:24:03.934Z,4664
2019-01-08T09:25:06.087Z,4872
2019-01-08T09:26:03.422Z,4912
2019-01-08T09:27:03.939Z,3784
2019-01-08T09:28:03.902Z,3796
2019-01-08T09:29:04.144Z,3740
2019-01-08T09:30:03.634Z,3804
2019-01-08T09:31:03.640Z,5080
2019-01-08T09:32:04.104Z,5156
2019-01-08T09:33:04.109Z,5188
2019-01-08T09:34:03.850Z,5220
2019-01-08T09:35:04.113Z,5204
2019-01-08T09:36:03.588Z,5216
2019-01-08T09:37:04.074Z,5272
2019-01-08T09:38:03.827Z,5332
2019-01-08T09:39:04.071Z,5316
2019-01-08T09:40:04.664Z,5152
2019-01-08T09:41:04.033Z,5428
2019-01-08T09:42:04.024Z,5508
2019-01-08T09:43:03.770Z,5396
2019-01-08T09:44:03.758Z,4012
2019-01-08T09:45:03.274Z,3904
2019-01-08T09:46:03.747Z,4820
2019-01-08T09:47:03.738Z,5596
2019-01-08T09:48:03.242Z,5608
2019-01-08T09:49:03.993Z,5604
2019-01-08T09:50:03.814Z,5628
2019-01-08T09:51:03.712Z,5664
2019-01-08T09:52:03.705Z,5652
2019-01-08T09:53:03.455Z,5652
2019-01-08T09:54:03.690Z,5652
2019-01-08T09:55:03.934Z,4964
2019-01-08T09:56:03.681Z,4196
2019-01-08T09:57:03.763Z,4436
2019-01-08T09:58:03.916Z,4148
2019-01-08T09:59:03.647Z,5712
2019-01-08T10:00:03.933Z,5608
2019-01-08T10:01:03.892Z,5200
2019-01-08T10:02:03.888Z,5744
2019-01-08T10:03:03.384Z,5788
2019-01-08T10:04:03.374Z,5800
2019-01-08T10:05:03.638Z,5696
2019-01-08T10:06:03.901Z,5584
2019-01-08T10:07:03.597Z,3948
2019-01-08T10:08:03.600Z,3908
2019-01-08T10:09:03.609Z,3864
2019-01-08T10:10:03.831Z,4068
2019-01-08T10:11:04.863Z,3836
2019-01-08T10:12:03.547Z,3844
2019-01-08T10:13:03.294Z,3928
2019-01-08T10:14:03.798Z,3848
2019-01-08T10:15:03.547Z,3968
2019-01-08T10:16:03.784Z,3724
2019-01-08T10:17:03.539Z,3704
2019-01-08T10:18:03.770Z,3944
2019-01-08T10:19:03.760Z,4428
2019-01-08T10:20:03.279Z,4264
2019-01-08T10:21:03.507Z,5764
2019-01-08T10:22:03.474Z,5716
2019-01-08T10:23:09.983Z,5676
2019-01-08T10:24:04.571Z,5736
2019-01-08T10:25:03.700Z,5816
2019-01-08T10:26:05.915Z,5760
2019-01-08T10:27:03.439Z,5996
2019-01-08T10:28:03.203Z,6004
2019-01-08T10:29:03.659Z,6008
2019-01-08T10:30:04.196Z,5880
2019-01-08T10:31:03.406Z,5752
2019-01-08T10:32:03.393Z,5552
2019-01-08T10:33:03.156Z,5688
2019-01-08T10:34:03.643Z,5512
2019-01-08T10:35:04.409Z,5248
2019-01-08T10:36:03.372Z,5404
2019-01-08T10:37:03.361Z,5680
2019-01-08T10:38:03.608Z,5780
2019-01-08T10:39:03.355Z,5968
2019-01-08T10:40:04.077Z,5920
2019-01-08T10:41:03.385Z,5916
2019-01-08T10:42:03.572Z,5736
2019-01-08T10:43:03.556Z,5624
2019-01-08T10:44:03.076Z,5184
2019-01-08T10:45:03.079Z,3972
2019-01-08T10:46:02.840Z,4064
2019-01-08T10:47:03.558Z,4196
2019-01-08T10:48:03.289Z,4048
2019-01-08T10:49:03.037Z,4052
2019-01-08T10:50:03.621Z,4064
2019-01-08T10:51:03.511Z,5516
2019-01-08T10:52:04.821Z,5712
2019-01-08T10:53:03.241Z,5620
2019-01-08T10:54:03.505Z,4108
2019-01-08T10:55:03.577Z,4416
2019-01-08T10:56:03.489Z,5132
2019-01-08T10:57:03.221Z,4668
2019-01-08T10:58:03.468Z,5260
2019-01-08T10:59:10.090Z,4308
2019-01-08T11:00:03.455Z,4316
2019-01-08T11:01:03.458Z,5076
2019-01-08T11:02:03.224Z,4892
2019-01-08T11:03:03.186Z,6180
2019-01-08T11:04:02.930Z,5276
2019-01-08T11:05:03.422Z,5164
2019-01-08T11:06:03.422Z,4708
2019-01-08T11:07:03.157Z,4960
2019-01-08T11:08:02.925Z,6392
2019-01-08T11:09:03.388Z,5364
2019-01-08T11:10:03.143Z,5444
2019-01-08T11:11:03.423Z,6148
2019-01-08T11:12:05.287Z,4628
2019-01-08T11:13:03.373Z,6072
2019-01-08T11:14:03.381Z,5036
2019-01-08T11:15:03.353Z,6332
2019-01-08T11:16:02.888Z,6368
2019-01-08T11:17:03.092Z,5308
2019-01-08T11:18:03.089Z,7072
2019-01-08T11:19:03.084Z,7372
2019-01-08T11:20:03.322Z,5700
2019-01-08T11:21:03.122Z,6304
2019-01-08T11:22:03.072Z,5548
2019-01-08T11:23:03.072Z,5308
2019-01-08T11:24:03.378Z,6016
2019-01-08T11:25:03.058Z,5532
2019-01-08T11:26:03.042Z,6204
2019-01-08T11:27:03.827Z,6648
2019-01-08T11:28:02.784Z,6776
2019-01-08T11:29:03.269Z,7144
2019-01-08T11:30:03.026Z,7684
2019-01-08T11:31:03.243Z,7176
2019-01-08T11:32:03.245Z,7184
2019-01-08T11:33:03.003Z,7000
2019-01-08T11:34:02.742Z,7088
2019-01-08T11:35:02.983Z,7252
2019-01-08T11:36:02.979Z,7120
2019-01-08T11:37:03.019Z,6880
2019-01-08T11:38:03.199Z,6616
2019-01-08T11:39:02.710Z,6452
2019-01-08T11:40:02.963Z,7452
2019-01-08T11:41:03.185Z,6312
2019-01-08T11:42:03.233Z,6008
2019-01-08T11:43:03.198Z,5996
2019-01-08T11:44:03.163Z,5676
2019-01-08T11:45:02.932Z,5864
2019-01-08T11:46:02.911Z,4824
2019-01-08T11:47:03.148Z,3956
2019-01-08T11:48:10.726Z,3332
2019-01-08T11:49:03.148Z,3112
2019-01-08T11:50:02.670Z,2972
2019-01-08T11:51:03.130Z,2744
2019-01-08T11:52:02.964Z,2776
2019-01-08T11:53:03.125Z,2772
2019-01-08T11:54:02.879Z,2828
2019-01-08T11:55:02.864Z,2848
2019-01-08T11:56:03.944Z,2864
2019-01-08T11:57:09.312Z,3024
2019-01-08T11:58:03.109Z,3120
2019-01-08T11:59:03.076Z,3044
2019-01-08T12:00:02.584Z,2968
2019-01-08T12:01:03.149Z,2864
2019-01-08T12:02:05.090Z,2720
2019-01-08T12:03:02.831Z,2652
2019-01-08T12:04:02.815Z,2772
2019-01-08T12:05:02.805Z,3056
2019-01-08T12:06:04.584Z,3408
2019-01-08T12:07:03.060Z,3624
2019-01-08T12:08:03.021Z,3804
2019-01-08T12:09:03.043Z,3816
2019-01-08T12:10:03.071Z,3784
2019-01-08T12:11:03.033Z,3748
2019-01-08T12:12:03.017Z,3760
2019-01-08T12:13:03.023Z,3944
2019-01-08T12:14:02.756Z,4152
2019-01-08T12:15:02.714Z,4312
2019-01-08T12:16:02.982Z,4496
2019-01-08T12:17:02.452Z,4696
2019-01-08T12:18:02.708Z,4812
2019-01-08T12:19:02.963Z,4884
2019-01-08T12:20:02.695Z,4912
2019-01-08T12:21:02.953Z,4864
2019-01-08T12:22:02.689Z,4732
2019-01-08T12:23:02.671Z,4580
2019-01-08T12:24:02.670Z,4448
2019-01-08T12:25:02.913Z,4288
2019-01-08T12:26:02.662Z,4176
2019-01-08T12:27:02.672Z,4120
2019-01-08T12:28:05.655Z,4112
2019-01-08T12:29:02.878Z,4080
2019-01-08T12:30:02.867Z,4048
2019-01-08T12:31:02.632Z,4008
2019-01-08T12:32:11.032Z,4004
2019-01-08T12:33:02.855Z,4028
2019-01-08T12:34:02.586Z,4100
2019-01-08T12:35:02.620Z,4288
2019-01-08T12:36:02.595Z,4532
2019-01-08T12:37:02.646Z,4760
2019-01-08T12:38:02.319Z,5324
2019-01-08T12:39:02.577Z,5324
2019-01-08T12:40:02.826Z,5968
2019-01-08T12:41:02.541Z,5336
2019-01-08T12:42:02.287Z,5420
2019-01-08T12:43:02.588Z,6004
2019-01-08T12:44:02.958Z,6232
2019-01-08T12:45:02.563Z,5520
2019-01-08T12:46:02.286Z,6396
2019-01-08T12:47:02.519Z,5184
2019-01-08T12:48:02.269Z,4664
2019-01-08T12:49:02.738Z,3928
2019-01-08T12:50:02.708Z,3136
2019-01-08T12:51:02.483Z,2916
2019-01-08T12:52:02.727Z,3188
2019-01-08T12:53:02.475Z,3672
2019-01-08T12:54:02.252Z,3680
2019-01-08T12:55:02.557Z,3336
2019-01-08T12:56:02.691Z,3228
2019-01-08T12:57:02.450Z,3392
2019-01-08T12:58:02.703Z,3464
2019-01-08T12:59:02.426Z,3508
2019-01-08T13:00:02.497Z,3528
2019-01-08T13:01:02.430Z,3384
2019-01-08T13:02:02.430Z,3044
2019-01-08T13:03:02.663Z,2688
2019-01-08T13:04:02.442Z,2776
2019-01-08T13:05:02.380Z,3180
2019-01-08T13:06:02.401Z,3816
2019-01-08T13:07:02.620Z,3004
2019-01-08T13:08:02.626Z,2580
2019-01-08T13:09:02.378Z,2188
2019-01-08T13:10:02.456Z,2100
2019-01-08T13:11:02.599Z,1864
2019-01-08T13:12:02.345Z,1932
2019-01-08T13:13:02.328Z,1928
2019-01-08T13:14:02.393Z,1640
2019-01-08T13:15:02.684Z,1616
2019-01-08T13:16:02.569Z,1820
2019-01-08T13:17:11.123Z,1936
2019-01-08T13:18:02.062Z,2016
2019-01-08T13:19:02.285Z,2044
2019-01-08T13:20:02.303Z,1916
2019-01-08T13:21:02.056Z,1804
2019-01-08T13:22:02.632Z,1728
2019-01-08T13:23:02.278Z,1888
2019-01-08T13:24:02.533Z,1924
2019-01-08T13:25:02.674Z,1772
2019-01-08T13:26:02.257Z,1632
2019-01-08T13:27:02.488Z,1632
2019-01-08T13:28:02.243Z,1676
2019-01-08T13:29:04.370Z,1608
2019-01-08T13:30:03.854Z,1504
2019-01-08T13:31:02.207Z,1288
2019-01-08T13:32:02.230Z,1084
2019-01-08T13:33:02.211Z,1028
2019-01-08T13:34:04.579Z,1136
2019-01-08T13:35:02.633Z,1200
2019-01-08T13:36:02.436Z,1148
2019-01-08T13:37:02.265Z,1148
2019-01-08T13:38:02.172Z,1148
2019-01-08T13:39:02.161Z,1172
2019-01-08T13:40:02.714Z,1124
2019-01-08T13:41:03.465Z,1092
2019-01-08T13:42:02.390Z,1088
2019-01-08T13:43:01.903Z,1092
2019-01-08T13:44:03.522Z,1132
2019-01-08T13:45:02.339Z,1180
2019-01-08T13:46:02.344Z,1256
2019-01-08T13:47:02.320Z,1336
2019-01-08T13:48:01.828Z,1532
2019-01-08T13:49:02.317Z,1744
2019-01-08T13:50:02.072Z,1812
2019-01-08T13:51:02.299Z,1944
2019-01-08T13:52:02.043Z,2140
2019-01-08T13:53:02.050Z,2320
2019-01-08T13:54:02.284Z,2564
2019-01-08T13:55:03.581Z,2776
2019-01-08T13:56:02.013Z,2836
2019-01-08T13:57:01.995Z,2812
2019-01-08T13:58:01.838Z,2784
2019-01-08T13:59:01.999Z,2716
2019-01-08T14:00:06.281Z,2688
2019-01-08T14:01:01.983Z,2708
2019-01-08T14:02:01.984Z,2704
2019-01-08T14:03:02.226Z,2696
2019-01-08T14:04:02.203Z,2640
2019-01-08T14:05:02.213Z,2572